KHLR/HLR METAR and TAF weather

Enter ICAO airport designator
Station Type Date Time Source
KHLR METAR 2019/10/20 18:58 UTC NOAA

KHLR 201858Z AUTO 20015KT 9SM OVC020 28/19 A2975 RMK AO2 SLP065 T02750194


Station Type Date Time Source
KHLR Decoded METAR 2019/10/20 18:58 UTC NOAA

Fort Hood, Hood AAF Ft Hood, TX, United States (KHLR) 31-08N 097-42W
Oct 20, 2019 - 02:58 PM EDT / 2019.10.20 1858 UTC
Wind: from the SSW (200 degrees) at 17 MPH (15 KT):0
Visibility: 9 mile(s):0
Sky conditions: overcast
Temperature: 81.5 F (27.5 C)
Dew Point: 66.9 F (19.4 C)
Relative Humidity: 61%
Pressure (altimeter): 29.75 in. Hg (1007 hPa)
ob: KHLR 201858Z AUTO 20015KT 9SM OVC020 28/19 A2975 RMK AO2 SLP065 T02750194
cycle: 19

Station Type Date Time Source
KHLR TAF UTC NOAA

Error!

Example: see airport list